sensor_id;sensor_type;location;lat;lon;timestamp;pressure;altitude;pressure_sealevel;temperature;humidity
55068;BME280;40965;52.368;9.712;2023-03-25T00:00:17;99459.03;;;8.52;96.47
55068;BME280;40965;52.368;9.712;2023-03-25T00:02:47;99451.06;;;8.60;96.00
55068;BME280;40965;52.368;9.712;2023-03-25T00:05:19;99449.34;;;8.59;96.43
55068;BME280;40965;52.368;9.712;2023-03-25T00:07:51;99445.94;;;8.55;96.38
55068;BME280;40965;52.368;9.712;2023-03-25T00:10:18;99438.06;;;8.58;96.24
55068;BME280;40965;52.368;9.712;2023-03-25T00:12:44;99447.72;;;8.53;96.44
55068;BME280;40965;52.368;9.712;2023-03-25T00:15:12;99452.13;;;8.50;97.13
55068;BME280;40965;52.368;9.712;2023-03-25T00:17:40;99443.53;;;8.46;97.28
55068;BME280;40965;52.368;9.712;2023-03-25T00:20:08;99458.34;;;8.42;97.27
55068;BME280;40965;52.368;9.712;2023-03-25T00:22:36;99460.13;;;8.39;97.83
55068;BME280;40965;52.368;9.712;2023-03-25T00:25:10;99446.38;;;8.32;97.80
55068;BME280;40965;52.368;9.712;2023-03-25T00:27:41;99448.13;;;8.30;98.13
55068;BME280;40965;52.368;9.712;2023-03-25T00:30:10;99445.59;;;8.27;98.39
55068;BME280;40965;52.368;9.712;2023-03-25T00:32:37;99443.78;;;8.29;98.39
55068;BME280;40965;52.368;9.712;2023-03-25T00:35:04;99456.09;;;8.22;99.04
55068;BME280;40965;52.368;9.712;2023-03-25T00:37:32;99443.94;;;8.23;98.66
55068;BME280;40965;52.368;9.712;2023-03-25T00:39:59;99450.06;;;8.20;99.00
55068;BME280;40965;52.368;9.712;2023-03-25T00:42:26;99453.63;;;8.16;99.32
55068;BME280;40965;52.368;9.712;2023-03-25T00:44:53;99444.13;;;8.14;98.86
55068;BME280;40965;52.368;9.712;2023-03-25T00:47:19;99453.63;;;8.15;99.04
55068;BME280;40965;52.368;9.712;2023-03-25T00:49:47;99455.28;;;8.20;98.96
55068;BME280;40965;52.368;9.712;2023-03-25T00:52:15;99455.13;;;8.26;98.50
55068;BME280;40965;52.368;9.712;2023-03-25T00:54:42;99462.19;;;8.23;98.40
55068;BME280;40965;52.368;9.712;2023-03-25T00:57:10;99463.91;;;8.22;98.15
55068;BME280;40965;52.368;9.712;2023-03-25T00:59:36;99467.25;;;8.29;98.44
55068;BME280;40965;52.368;9.712;2023-03-25T01:02:03;99470.59;;;8.37;97.63
55068;BME280;40965;52.368;9.712;2023-03-25T01:04:31;99466.28;;;8.36;97.67
55068;BME280;40965;52.368;9.712;2023-03-25T01:06:58;99462.72;;;8.40;97.67
55068;BME280;40965;52.368;9.712;2023-03-25T01:09:25;99463.47;;;8.47;97.03
55068;BME280;40965;52.368;9.712;2023-03-25T01:11:52;99456.38;;;8.55;96.09
55068;BME280;40965;52.368;9.712;2023-03-25T01:14:20;99453.81;;;8.52;96.18
55068;BME280;40965;52.368;9.712;2023-03-25T01:16:48;99452.00;;;8.56;96.12
55068;BME280;40965;52.368;9.712;2023-03-25T01:19:15;99444.84;;;8.67;94.85
55068;BME280;40965;52.368;9.712;2023-03-25T01:21:42;99442.97;;;8.74;94.54
55068;BME280;40965;52.368;9.712;2023-03-25T01:24:13;99452.41;;;8.80;93.57
55068;BME280;40965;52.368;9.712;2023-03-25T01:26:40;99445.28;;;8.88;93.17
55068;BME280;40965;52.368;9.712;2023-03-25T01:29:11;99442.53;;;8.94;92.79
55068;BME280;40965;52.368;9.712;2023-03-25T01:31:39;99444.06;;;9.03;91.69
55068;BME280;40965;52.368;9.712;2023-03-25T01:34:06;99450.09;;;9.06;92.13
55068;BME280;40965;52.368;9.712;2023-03-25T01:36:33;99449.31;;;9.03;91.96
55068;BME280;40965;52.368;9.712;2023-03-25T01:39:03;99444.00;;;9.07;91.87
55068;BME280;40965;52.368;9.712;2023-03-25T01:41:31;99447.34;;;9.13;90.93
55068;BME280;40965;52.368;9.712;2023-03-25T01:46:43;99448.16;;;9.15;91.00
55068;BME280;40965;52.368;9.712;2023-03-25T01:49:15;99442.16;;;9.11;91.20
55068;BME280;40965;52.368;9.712;2023-03-25T01:51:49;99436.00;;;9.14;90.74
55068;BME280;40965;52.368;9.712;2023-03-25T01:54:18;99442.09;;;9.14;90.85
55068;BME280;40965;52.368;9.712;2023-03-25T01:56:46;99436.84;;;9.16;90.66
55068;BME280;40965;52.368;9.712;2023-03-25T01:59:20;99429.84;;;9.18;90.88
55068;BME280;40965;52.368;9.712;2023-03-25T02:01:49;99429.94;;;9.13;91.43
55068;BME280;40965;52.368;9.712;2023-03-25T02:04:23;99425.50;;;9.17;91.01
55068;BME280;40965;52.368;9.712;2023-03-25T02:06:56;99422.91;;;9.17;91.15
55068;BME280;40965;52.368;9.712;2023-03-25T02:09:24;99422.94;;;9.15;91.38
55068;BME280;40965;52.368;9.712;2023-03-25T02:11:51;99425.53;;;9.15;91.84
55068;BME280;40965;52.368;9.712;2023-03-25T02:14:28;99423.88;;;9.11;92.30
55068;BME280;40965;52.368;9.712;2023-03-25T02:17:07;99432.66;;;9.07;92.92
55068;BME280;40965;52.368;9.712;2023-03-25T02:23:09;99438.19;;;8.94;93.73
55068;BME280;40965;52.368;9.712;2023-03-25T02:26:24;99432.25;;;8.88;95.29
55068;BME280;40965;52.368;9.712;2023-03-25T02:32:09;99428.38;;;8.64;99.17
55068;BME280;40965;52.368;9.712;2023-03-25T02:35:10;99433.00;;;8.51;100.00
55068;BME280;40965;52.368;9.712;2023-03-25T02:43:30;99442.81;;;8.36;100.00
55068;BME280;40965;52.368;9.712;2023-03-25T02:46:03;99430.66;;;8.35;100.00
55068;BME280;40965;52.368;9.712;2023-03-25T02:51:33;99417.56;;;8.37;100.00
55068;BME280;40965;52.368;9.712;2023-03-25T02:54:10;99418.50;;;8.34;100.00
55068;BME280;40965;52.368;9.712;2023-03-25T02:56:40;99426.38;;;8.31;100.00
55068;BME280;40965;52.368;9.712;2023-03-25T02:59:17;99412.41;;;8.35;100.00
55068;BME280;40965;52.368;9.712;2023-03-25T03:01:46;99406.31;;;8.36;100.00
55068;BME280;40965;52.368;9.712;2023-03-25T03:04:25;99398.41;;;8.41;100.00
55068;BME280;40965;52.368;9.712;2023-03-25T03:06:58;99409.69;;;8.41;100.00
55068;BME280;40965;52.368;9.712;2023-03-25T03:09:38;99411.44;;;8.41;99.63
55068;BME280;40965;52.368;9.712;2023-03-25T03:13:08;99408.06;;;8.36;99.38
55068;BME280;40965;52.368;9.712;2023-03-25T03:16:04;99399.34;;;8.35;98.70
55068;BME280;40965;52.368;9.712;2023-03-25T03:18:45;99392.50;;;8.31;98.49
55068;BME280;40965;52.368;9.712;2023-03-25T03:21:25;99390.03;;;8.23;99.56
55068;BME280;40965;52.368;9.712;2023-03-25T03:24:16;99399.00;;;8.10;100.00
55068;BME280;40965;52.368;9.712;2023-03-25T03:27:07;99396.59;;;7.98;100.00
55068;BME280;40965;52.368;9.712;2023-03-25T03:29:45;99390.59;;;7.94;100.00
55068;BME280;40965;52.368;9.712;2023-03-25T03:35:28;99403.28;;;8.13;98.15
55068;BME280;40965;52.368;9.712;2023-03-25T03:38:04;99397.09;;;8.18;97.23
55068;BME280;40965;52.368;9.712;2023-03-25T03:40:36;99402.34;;;8.17;97.32
55068;BME280;40965;52.368;9.712;2023-03-25T03:43:20;99406.69;;;8.16;97.23
55068;BME280;40965;52.368;9.712;2023-03-25T03:45:55;99401.41;;;8.19;96.37
55068;BME280;40965;52.368;9.712;2023-03-25T03:48:33;99404.88;;;8.21;96.30
55068;BME280;40965;52.368;9.712;2023-03-25T03:51:24;99405.78;;;8.17;96.03
55068;BME280;40965;52.368;9.712;2023-03-25T03:54:17;99410.13;;;8.18;95.83
55068;BME280;40965;52.368;9.712;2023-03-25T03:56:54;99408.38;;;8.19;95.52
55068;BME280;40965;52.368;9.712;2023-03-25T03:59:35;99415.34;;;8.18;95.72
55068;BME280;40965;52.368;9.712;2023-03-25T04:02:11;99417.28;;;8.07;96.21
55068;BME280;40965;52.368;9.712;2023-03-25T04:05:06;99412.28;;;7.96;96.44
55068;BME280;40965;52.368;9.712;2023-03-25T04:07:57;99418.41;;;7.93;96.46
55068;BME280;40965;52.368;9.712;2023-03-25T04:13:34;99420.09;;;7.96;94.96
55068;BME280;40965;52.368;9.712;2023-03-25T04:16:02;99422.72;;;7.94;95.20
55068;BME280;40965;52.368;9.712;2023-03-25T04:18:29;99412.34;;;7.93;95.33
55068;BME280;40965;52.368;9.712;2023-03-25T04:20:58;99418.41;;;7.93;94.96
55068;BME280;40965;52.368;9.712;2023-03-25T04:23:26;99422.66;;;7.98;94.62
55068;BME280;40965;52.368;9.712;2023-03-25T04:25:55;99420.66;;;8.12;93.34
55068;BME280;40965;52.368;9.712;2023-03-25T04:28:22;99429.28;;;8.16;93.43
55068;BME280;40965;52.368;9.712;2023-03-25T04:30:50;99425.16;;;8.04;94.13
55068;BME280;40965;52.368;9.712;2023-03-25T04:33:21;99428.13;;;7.82;95.18
55068;BME280;40965;52.368;9.712;2023-03-25T04:35:48;99417.19;;;7.63;95.72
55068;BME280;40965;52.368;9.712;2023-03-25T04:38:16;99423.38;;;7.56;96.90
55068;BME280;40965;52.368;9.712;2023-03-25T04:40:44;99419.13;;;7.50;97.58
55068;BME280;40965;52.368;9.712;2023-03-25T04:43:15;99409.78;;;7.38;97.44
55068;BME280;40965;52.368;9.712;2023-03-25T04:45:43;99416.66;;;7.42;97.54
55068;BME280;40965;52.368;9.712;2023-03-25T04:48:22;99423.31;;;7.60;96.00
55068;BME280;40965;52.368;9.712;2023-03-25T04:50:50;99419.69;;;7.68;95.33
55068;BME280;40965;52.368;9.712;2023-03-25T04:53:17;99422.22;;;7.74;95.33
55068;BME280;40965;52.368;9.712;2023-03-25T04:55:44;99419.38;;;7.88;94.38
55068;BME280;40965;52.368;9.712;2023-03-25T04:58:13;99418.38;;;7.95;94.25
55068;BME280;40965;52.368;9.712;2023-03-25T05:00:44;99412.22;;;7.98;94.37
55068;BME280;40965;52.368;9.712;2023-03-25T05:03:17;99422.69;;;7.96;95.24
55068;BME280;40965;52.368;9.712;2023-03-25T05:05:49;99413.25;;;7.90;95.41
55068;BME280;40965;52.368;9.712;2023-03-25T05:08:16;99414.88;;;7.96;94.93
55068;BME280;40965;52.368;9.712;2023-03-25T05:10:45;99414.97;;;7.91;95.37
55068;BME280;40965;52.368;9.712;2023-03-25T05:13:12;99430.72;;;7.85;95.87
55068;BME280;40965;52.368;9.712;2023-03-25T05:15:39;99435.94;;;7.82;96.66
55068;BME280;40965;52.368;9.712;2023-03-25T05:18:13;99434.16;;;7.86;96.11
55068;BME280;40965;52.368;9.712;2023-03-25T05:20:42;99434.28;;;7.78;96.99
55068;BME280;40965;52.368;9.712;2023-03-25T05:23:12;99423.03;;;7.77;97.54
55068;BME280;40965;52.368;9.712;2023-03-25T05:25:47;99442.31;;;7.66;98.31
55068;BME280;40965;52.368;9.712;2023-03-25T05:28:17;99434.59;;;7.59;98.66
55068;BME280;40965;52.368;9.712;2023-03-25T05:30:45;99430.41;;;7.52;98.20
55068;BME280;40965;52.368;9.712;2023-03-25T05:33:15;99428.66;;;7.53;97.66
55068;BME280;40965;52.368;9.712;2023-03-25T05:35:44;99423.56;;;7.45;97.75
55068;BME280;40965;52.368;9.712;2023-03-25T05:38:11;99425.56;;;7.26;99.39
55068;BME280;40965;52.368;9.712;2023-03-25T05:40:40;99428.56;;;7.00;100.00
55068;BME280;40965;52.368;9.712;2023-03-25T05:43:07;99436.56;;;6.87;100.00
55068;BME280;40965;52.368;9.712;2023-03-25T05:45:34;99426.94;;;6.91;100.00
55068;BME280;40965;52.368;9.712;2023-03-25T05:48:01;99435.53;;;6.96;100.00
55068;BME280;40965;52.368;9.712;2023-03-25T05:50:29;99433.72;;;7.04;100.00
55068;BME280;40965;52.368;9.712;2023-03-25T05:52:56;99427.47;;;7.16;100.00
55068;BME280;40965;52.368;9.712;2023-03-25T05:55:24;99427.34;;;7.25;100.00
55068;BME280;40965;52.368;9.712;2023-03-25T05:57:52;99430.59;;;7.38;100.00
55068;BME280;40965;52.368;9.712;2023-03-25T06:00:19;99428.75;;;7.45;100.00
55068;BME280;40965;52.368;9.712;2023-03-25T06:02:47;99425.19;;;7.52;100.00
55068;BME280;40965;52.368;9.712;2023-03-25T06:05:15;99432.88;;;7.58;100.00
55068;BME280;40965;52.368;9.712;2023-03-25T06:07:42;99428.44;;;7.65;100.00
55068;BME280;40965;52.368;9.712;2023-03-25T06:10:13;99425.72;;;7.71;100.00
55068;BME280;40965;52.368;9.712;2023-03-25T06:12:42;99438.72;;;7.74;100.00
55068;BME280;40965;52.368;9.712;2023-03-25T06:15:14;99415.19;;;7.79;99.91
55068;BME280;40965;52.368;9.712;2023-03-25T06:17:45;99434.38;;;7.73;99.65
55068;BME280;40965;52.368;9.712;2023-03-25T06:20:13;99435.44;;;7.63;100.00
55068;BME280;40965;52.368;9.712;2023-03-25T06:22:44;99434.56;;;7.61;100.00
55068;BME280;40965;52.368;9.712;2023-03-25T06:25:13;99437.94;;;7.68;99.83
55068;BME280;40965;52.368;9.712;2023-03-25T06:27:43;99421.41;;;7.70;99.89
55068;BME280;40965;52.368;9.712;2023-03-25T06:30:20;99424.63;;;7.86;98.83
55068;BME280;40965;52.368;9.712;2023-03-25T06:32:47;99433.91;;;8.01;97.71
55068;BME280;40965;52.368;9.712;2023-03-25T06:35:20;99429.38;;;8.09;97.08
55068;BME280;40965;52.368;9.712;2023-03-25T06:37:47;99429.19;;;8.22;95.74
55068;BME280;40965;52.368;9.712;2023-03-25T06:40:14;99432.44;;;8.32;94.00
55068;BME280;40965;52.368;9.712;2023-03-25T06:42:41;99441.13;;;8.34;94.06
55068;BME280;40965;52.368;9.712;2023-03-25T06:45:08;99441.97;;;8.34;93.94
55068;BME280;40965;52.368;9.712;2023-03-25T06:47:36;99444.50;;;8.39;93.06
55068;BME280;40965;52.368;9.712;2023-03-25T06:50:02;99447.06;;;8.40;93.34
55068;BME280;40965;52.368;9.712;2023-03-25T06:52:29;99441.00;;;8.40;93.31
55068;BME280;40965;52.368;9.712;2023-03-25T06:54:56;99447.97;;;8.38;93.90
55068;BME280;40965;52.368;9.712;2023-03-25T06:57:22;99439.25;;;8.40;94.17
55068;BME280;40965;52.368;9.712;2023-03-25T06:59:49;99433.06;;;8.44;93.70
55068;BME280;40965;52.368;9.712;2023-03-25T07:02:16;99439.84;;;8.55;92.97
55068;BME280;40965;52.368;9.712;2023-03-25T07:04:42;99446.84;;;8.54;92.61
55068;BME280;40965;52.368;9.712;2023-03-25T07:07:09;99449.25;;;8.64;92.11
55068;BME280;40965;52.368;9.712;2023-03-25T07:09:35;99442.22;;;8.67;90.81
55068;BME280;40965;52.368;9.712;2023-03-25T07:12:02;99435.47;;;8.57;91.46
55068;BME280;40965;52.368;9.712;2023-03-25T07:14:31;99438.38;;;8.84;91.02
55068;BME280;40965;52.368;9.712;2023-03-25T07:16:57;99450.47;;;9.66;86.26
55068;BME280;40965;52.368;9.712;2023-03-25T07:19:24;99450.69;;;10.24;81.96
55068;BME280;40965;52.368;9.712;2023-03-25T07:21:51;99441.72;;;10.02;82.50
55068;BME280;40965;52.368;9.712;2023-03-25T07:24:17;99448.13;;;9.90;83.13
55068;BME280;40965;52.368;9.712;2023-03-25T07:26:43;99446.41;;;9.89;82.16
55068;BME280;40965;52.368;9.712;2023-03-25T07:29:10;99449.94;;;10.21;81.40
55068;BME280;40965;52.368;9.712;2023-03-25T07:31:36;99469.59;;;10.03;80.79
55068;BME280;40965;52.368;9.712;2023-03-25T07:34:04;99454.75;;;9.69;83.17
55068;BME280;40965;52.368;9.712;2023-03-25T07:36:32;99451.91;;;9.42;84.47
55068;BME280;40965;52.368;9.712;2023-03-25T07:38:59;99471.38;;;9.29;85.72
55068;BME280;40965;52.368;9.712;2023-03-25T07:41:26;99473.47;;;9.11;87.43
55068;BME280;40965;52.368;9.712;2023-03-25T07:43:52;99470.59;;;8.84;90.03
55068;BME280;40965;52.368;9.712;2023-03-25T07:46:19;99485.00;;;8.10;100.00
55068;BME280;40965;52.368;9.712;2023-03-25T07:48:45;99486.03;;;7.47;100.00
55068;BME280;40965;52.368;9.712;2023-03-25T07:51:12;99488.94;;;7.23;100.00
55068;BME280;40965;52.368;9.712;2023-03-25T07:53:38;99469.69;;;7.37;100.00
55068;BME280;40965;52.368;9.712;2023-03-25T07:56:09;99479.06;;;7.49;100.00
55068;BME280;40965;52.368;9.712;2023-03-25T07:58:36;99476.09;;;7.70;100.00
55068;BME280;40965;52.368;9.712;2023-03-25T08:01:03;99478.44;;;7.89;100.00
55068;BME280;40965;52.368;9.712;2023-03-25T08:03:30;99468.34;;;8.19;100.00
55068;BME280;40965;52.368;9.712;2023-03-25T08:06:00;99471.41;;;8.39;100.00
55068;BME280;40965;52.368;9.712;2023-03-25T08:08:27;99459.75;;;8.60;100.00
55068;BME280;40965;52.368;9.712;2023-03-25T08:10:55;99446.78;;;9.00;96.47
55068;BME280;40965;52.368;9.712;2023-03-25T08:13:22;99465.44;;;9.20;94.67
55068;BME280;40965;52.368;9.712;2023-03-25T08:15:48;99470.72;;;9.17;94.37
55068;BME280;40965;52.368;9.712;2023-03-25T08:18:15;99474.41;;;9.08;93.82
55068;BME280;40965;52.368;9.712;2023-03-25T08:20:41;99469.53;;;8.93;93.79
55068;BME280;40965;52.368;9.712;2023-03-25T08:23:08;99474.84;;;8.88;94.10
55068;BME280;40965;52.368;9.712;2023-03-25T08:25:37;99483.59;;;8.86;93.16
55068;BME280;40965;52.368;9.712;2023-03-25T08:28:06;99478.28;;;8.90;92.07
55068;BME280;40965;52.368;9.712;2023-03-25T08:30:32;99471.38;;;8.88;91.80
55068;BME280;40965;52.368;9.712;2023-03-25T08:33:05;99480.81;;;8.93;90.75
55068;BME280;40965;52.368;9.712;2023-03-25T08:35:34;99486.66;;;9.06;90.20
55068;BME280;40965;52.368;9.712;2023-03-25T08:38:02;99479.53;;;9.13;89.95
55068;BME280;40965;52.368;9.712;2023-03-25T08:40:33;99477.50;;;9.26;89.38
55068;BME280;40965;52.368;9.712;2023-03-25T08:43:04;99478.28;;;9.31;89.01
55068;BME280;40965;52.368;9.712;2023-03-25T08:45:32;99476.59;;;9.29;89.22
55068;BME280;40965;52.368;9.712;2023-03-25T08:48:05;99486.53;;;9.13;89.63
55068;BME280;40965;52.368;9.712;2023-03-25T08:50:32;99493.75;;;8.98;90.69
55068;BME280;40965;52.368;9.712;2023-03-25T08:52:58;99493.94;;;8.90;92.09
55068;BME280;40965;52.368;9.712;2023-03-25T08:55:25;99481.88;;;8.85;93.48
55068;BME280;40965;52.368;9.712;2023-03-25T08:58:01;99485.63;;;8.71;94.99
55068;BME280;40965;52.368;9.712;2023-03-25T09:00:27;99484.75;;;8.72;95.56
55068;BME280;40965;52.368;9.712;2023-03-25T09:02:55;99479.41;;;8.77;95.55
55068;BME280;40965;52.368;9.712;2023-03-25T09:05:23;99482.81;;;8.81;96.21
55068;BME280;40965;52.368;9.712;2023-03-25T09:08:09;99475.81;;;8.84;96.25
55068;BME280;40965;52.368;9.712;2023-03-25T09:10:36;99475.59;;;8.93;95.35
55068;BME280;40965;52.368;9.712;2023-03-25T09:13:03;99479.03;;;8.96;93.96
55068;BME280;40965;52.368;9.712;2023-03-25T09:15:29;99487.63;;;9.01;94.45
55068;BME280;40965;52.368;9.712;2023-03-25T09:17:56;99486.88;;;8.94;93.42
55068;BME280;40965;52.368;9.712;2023-03-25T09:20:23;99471.50;;;8.82;93.97
55068;BME280;40965;52.368;9.712;2023-03-25T09:22:52;99463.84;;;8.74;93.94
55068;BME280;40965;52.368;9.712;2023-03-25T09:25:18;99471.84;;;8.65;94.87
55068;BME280;40965;52.368;9.712;2023-03-25T09:27:45;99485.88;;;8.57;96.29
55068;BME280;40965;52.368;9.712;2023-03-25T09:30:14;99488.47;;;8.60;96.36
55068;BME280;40965;52.368;9.712;2023-03-25T09:32:41;99483.97;;;8.67;96.11
55068;BME280;40965;52.368;9.712;2023-03-25T09:35:11;99483.63;;;8.84;94.52
55068;BME280;40965;52.368;9.712;2023-03-25T09:37:38;99486.72;;;9.02;92.54
55068;BME280;40965;52.368;9.712;2023-03-25T09:40:05;99471.75;;;9.12;91.25
55068;BME280;40965;52.368;9.712;2023-03-25T09:45:42;99483.91;;;9.13;90.12
55068;BME280;40965;52.368;9.712;2023-03-25T09:48:35;99495.28;;;9.08;90.16
55068;BME280;40965;52.368;9.712;2023-03-25T09:51:21;99490.69;;;9.20;90.33
55068;BME280;40965;52.368;9.712;2023-03-25T09:54:03;99488.72;;;9.31;89.87
55068;BME280;40965;52.368;9.712;2023-03-25T09:56:43;99472.66;;;9.48;88.84
55068;BME280;40965;52.368;9.712;2023-03-25T09:59:12;99489.88;;;9.55;87.55
55068;BME280;40965;52.368;9.712;2023-03-25T10:04:53;99482.16;;;9.88;86.63
55068;BME280;40965;52.368;9.712;2023-03-25T10:08:11;99479.09;;;10.40;83.81
55068;BME280;40965;52.368;9.712;2023-03-25T10:10:54;99467.50;;;11.10;80.68
55068;BME280;40965;52.368;9.712;2023-03-25T10:13:55;99468.25;;;11.44;78.67
55068;BME280;40965;52.368;9.712;2023-03-25T10:16:52;99478.81;;;11.12;76.65
55068;BME280;40965;52.368;9.712;2023-03-25T10:22:06;99471.97;;;10.76;78.22
55068;BME280;40965;52.368;9.712;2023-03-25T10:24:58;99481.91;;;10.65;77.25
55068;BME280;40965;52.368;9.712;2023-03-25T10:27:49;99476.75;;;10.62;77.67
55068;BME280;40965;52.368;9.712;2023-03-25T10:30:21;99472.97;;;10.72;78.14
55068;BME280;40965;52.368;9.712;2023-03-25T10:32:59;99462.66;;;11.54;76.00
55068;BME280;40965;52.368;9.712;2023-03-25T10:35:31;99460.59;;;13.14;67.05
55068;BME280;40965;52.368;9.712;2023-03-25T10:38:12;99464.34;;;13.07;67.51
55068;BME280;40965;52.368;9.712;2023-03-25T10:40:45;99463.56;;;12.57;67.68
55068;BME280;40965;52.368;9.712;2023-03-25T10:43:33;99473.25;;;12.05;69.01
55068;BME280;40965;52.368;9.712;2023-03-25T10:47:04;99454.34;;;11.68;68.96
55068;BME280;40965;52.368;9.712;2023-03-25T10:49:18;99448.34;;;11.36;69.71
55068;BME280;40965;52.368;9.712;2023-03-25T10:51:49;99466.44;;;11.16;70.36
55068;BME280;40965;52.368;9.712;2023-03-25T10:54:26;99455.41;;;11.06;69.93
55068;BME280;40965;52.368;9.712;2023-03-25T10:57:02;99458.66;;;10.84;70.65
55068;BME280;40965;52.368;9.712;2023-03-25T11:02:18;99453.00;;;10.68;68.59
55068;BME280;40965;52.368;9.712;2023-03-25T11:04:51;99463.81;;;10.57;69.92
55068;BME280;40965;52.368;9.712;2023-03-25T11:07:26;99463.69;;;10.61;70.89
55068;BME280;40965;52.368;9.712;2023-03-25T11:10:16;99460.91;;;10.67;70.47
55068;BME280;40965;52.368;9.712;2023-03-25T11:12:49;99470.50;;;10.66;70.15
55068;BME280;40965;52.368;9.712;2023-03-25T11:15:33;99454.00;;;10.64;69.33
55068;BME280;40965;52.368;9.712;2023-03-25T11:18:37;99468.94;;;10.61;69.11
55068;BME280;40965;52.368;9.712;2023-03-25T11:21:14;99464.78;;;10.53;68.66
55068;BME280;40965;52.368;9.712;2023-03-25T11:23:49;99455.69;;;10.67;68.86
55068;BME280;40965;52.368;9.712;2023-03-25T11:26:19;99460.03;;;10.98;67.75
55068;BME280;40965;52.368;9.712;2023-03-25T11:28:49;99460.81;;;11.00;67.96
55068;BME280;40965;52.368;9.712;2023-03-25T11:31:22;99450.84;;;10.83;68.12
55068;BME280;40965;52.368;9.712;2023-03-25T11:36:32;99456.31;;;10.75;68.54
55068;BME280;40965;52.368;9.712;2023-03-25T11:41:56;99451.03;;;10.76;68.76
55068;BME280;40965;52.368;9.712;2023-03-25T11:44:28;99444.06;;;10.77;69.22
55068;BME280;40965;52.368;9.712;2023-03-25T11:47:00;99467.72;;;10.72;69.58
55068;BME280;40965;52.368;9.712;2023-03-25T11:49:29;99452.03;;;10.72;70.12
55068;BME280;40965;52.368;9.712;2023-03-25T11:52:40;99443.56;;;10.94;69.58
55068;BME280;40965;52.368;9.712;2023-03-25T11:55:27;99445.13;;;11.56;68.44
55068;BME280;40965;52.368;9.712;2023-03-25T11:57:57;99446.06;;;11.81;67.83
55068;BME280;40965;52.368;9.712;2023-03-25T12:02:59;99452.16;;;11.26;69.25
55068;BME280;40965;52.368;9.712;2023-03-25T12:05:39;99438.75;;;11.08;69.64
55068;BME280;40965;52.368;9.712;2023-03-25T12:08:14;99446.94;;;10.98;70.65
55068;BME280;40965;52.368;9.712;2023-03-25T12:13:30;99436.63;;;11.21;70.37
55068;BME280;40965;52.368;9.712;2023-03-25T12:19:55;99430.94;;;11.89;67.87
55068;BME280;40965;52.368;9.712;2023-03-25T12:23:01;99423.50;;;12.02;67.66
55068;BME280;40965;52.368;9.712;2023-03-25T12:26:08;99420.47;;;11.62;68.70
55068;BME280;40965;52.368;9.712;2023-03-25T12:35:02;99415.69;;;10.91;72.12
55068;BME280;40965;52.368;9.712;2023-03-25T12:37:57;99423.28;;;11.01;71.97
55068;BME280;40965;52.368;9.712;2023-03-25T12:40:56;99424.34;;;11.22;71.97
55068;BME280;40965;52.368;9.712;2023-03-25T12:43:36;99426.25;;;11.45;71.07
55068;BME280;40965;52.368;9.712;2023-03-25T12:52:08;99417.16;;;12.82;67.72
55068;BME280;40965;52.368;9.712;2023-03-25T13:04:39;99412.22;;;14.45;58.40
55068;BME280;40965;52.368;9.712;2023-03-25T13:07:17;99416.97;;;14.77;58.09
55068;BME280;40965;52.368;9.712;2023-03-25T13:10:19;99396.75;;;15.33;55.15
55068;BME280;40965;52.368;9.712;2023-03-25T13:12:49;99388.31;;;15.61;54.26
55068;BME280;40965;52.368;9.712;2023-03-25T13:15:22;99389.59;;;14.41;57.20
55068;BME280;40965;52.368;9.712;2023-03-25T13:17:54;99414.97;;;13.39;61.30
55068;BME280;40965;52.368;9.712;2023-03-25T13:20:31;99400.59;;;12.56;63.99
55068;BME280;40965;52.368;9.712;2023-03-25T13:23:04;99394.56;;;12.05;66.18
55068;BME280;40965;52.368;9.712;2023-03-25T13:25:53;99408.06;;;11.67;68.39
55068;BME280;40965;52.368;9.712;2023-03-25T13:28:26;99393.59;;;11.55;68.43
55068;BME280;40965;52.368;9.712;2023-03-25T13:31:04;99446.50;;;11.40;69.18
55068;BME280;40965;52.368;9.712;2023-03-25T13:33:37;99411.72;;;11.35;69.02
55068;BME280;40965;52.368;9.712;2023-03-25T13:36:14;99408.22;;;11.36;69.00
55068;BME280;40965;52.368;9.712;2023-03-25T13:38:48;99415.13;;;11.38;69.06
55068;BME280;40965;52.368;9.712;2023-03-25T13:41:43;99407.38;;;11.34;69.57
55068;BME280;40965;52.368;9.712;2023-03-25T13:44:16;99412.50;;;11.10;70.75
55068;BME280;40965;52.368;9.712;2023-03-25T13:46:48;99431.53;;;10.87;74.38
55068;BME280;40965;52.368;9.712;2023-03-25T13:49:26;99439.06;;;10.38;83.56
55068;BME280;40965;52.368;9.712;2023-03-25T13:51:55;99447.44;;;9.83;86.90
55068;BME280;40965;52.368;9.712;2023-03-25T13:54:27;99467.47;;;9.45;93.63
55068;BME280;40965;52.368;9.712;2023-03-25T13:57:13;99463.63;;;9.24;96.98
55068;BME280;40965;52.368;9.712;2023-03-25T14:06:37;99457.41;;;8.90;100.00
55068;BME280;40965;52.368;9.712;2023-03-25T14:09:27;99460.59;;;9.03;99.92
55068;BME280;40965;52.368;9.712;2023-03-25T14:12:11;99438.59;;;9.15;96.76
55068;BME280;40965;52.368;9.712;2023-03-25T14:14:52;99460.97;;;9.27;95.24
55068;BME280;40965;52.368;9.712;2023-03-25T14:17:21;99454.81;;;9.28;95.42
55068;BME280;40965;52.368;9.712;2023-03-25T14:19:51;99454.84;;;9.26;96.06
55068;BME280;40965;52.368;9.712;2023-03-25T14:22:30;99448.25;;;9.12;97.39
55068;BME280;40965;52.368;9.712;2023-03-25T14:24:58;99451.44;;;8.84;100.00
55068;BME280;40965;52.368;9.712;2023-03-25T14:27:32;99444.00;;;8.65;99.39
55068;BME280;40965;52.368;9.712;2023-03-25T14:30:21;99439.81;;;8.58;100.00
55068;BME280;40965;52.368;9.712;2023-03-25T14:32:50;99450.22;;;8.59;100.00
55068;BME280;40965;52.368;9.712;2023-03-25T14:46:13;99438.13;;;10.06;92.58
55068;BME280;40965;52.368;9.712;2023-03-25T14:54:02;99434.31;;;9.49;94.73
55068;BME280;40965;52.368;9.712;2023-03-25T14:57:12;99434.72;;;9.32;95.06
55068;BME280;40965;52.368;9.712;2023-03-25T14:59:49;99453.22;;;9.22;96.89
55068;BME280;40965;52.368;9.712;2023-03-25T15:02:29;99463.06;;;9.09;98.21
55068;BME280;40965;52.368;9.712;2023-03-25T15:04:59;99459.09;;;8.91;99.05
55068;BME280;40965;52.368;9.712;2023-03-25T15:11:02;99459.66;;;8.65;100.00
55068;BME280;40965;52.368;9.712;2023-03-25T15:13:38;99468.66;;;8.50;100.00
55068;BME280;40965;52.368;9.712;2023-03-25T15:19:01;99433.19;;;7.93;100.00
55068;BME280;40965;52.368;9.712;2023-03-25T15:24:36;99436.47;;;8.93;100.00